createdAt,value
2018-05-04T00:00:13.105Z,40.20
2018-05-04T00:01:13.110Z,40.30
2018-05-04T00:02:13.113Z,40.59
2018-05-04T00:03:13.128Z,40.59
2018-05-04T00:04:13.161Z,40.78
2018-05-04T00:05:13.148Z,41.16
2018-05-04T00:06:13.201Z,40.97
2018-05-04T00:07:13.167Z,40.78
2018-05-04T00:08:13.167Z,40.69
2018-05-04T00:09:13.174Z,40.59
2018-05-04T00:10:13.209Z,40.88
2018-05-04T00:11:13.252Z,41.16
2018-05-04T00:12:13.203Z,40.78
2018-05-04T00:13:13.257Z,40.49
2018-05-04T00:14:13.235Z,41.06
2018-05-04T00:15:13.229Z,41.06
2018-05-04T00:16:13.248Z,40.88
2018-05-04T00:17:13.283Z,41.16
2018-05-04T00:18:13.303Z,40.69
2018-05-04T00:19:13.279Z,40.78
2018-05-04T00:20:13.287Z,40.59
2018-05-04T00:21:13.318Z,41.06
2018-05-04T00:22:13.309Z,40.49
2018-05-04T00:23:13.814Z,40.69
2018-05-04T00:24:13.315Z,40.78
2018-05-04T00:25:13.337Z,40.88
2018-05-04T00:26:13.335Z,40.78
2018-05-04T00:27:13.348Z,40.97
2018-05-04T00:28:13.370Z,41.16
2018-05-04T00:29:13.394Z,41.35
2018-05-04T00:30:13.368Z,41.06
2018-05-04T00:31:13.388Z,41.06
2018-05-04T00:32:13.400Z,41.55
2018-05-04T00:33:13.446Z,41.55
2018-05-04T00:34:13.424Z,41.55
2018-05-04T00:35:13.430Z,41.83
2018-05-04T00:36:13.428Z,41.55
2018-05-04T00:37:13.457Z,41.45
2018-05-04T00:38:13.464Z,41.64
2018-05-04T00:39:13.531Z,41.93
2018-05-04T00:40:13.482Z,41.93
2018-05-04T00:41:13.478Z,41.64
2018-05-04T00:42:13.494Z,41.55
2018-05-04T00:43:13.508Z,41.55
2018-05-04T00:44:13.507Z,41.55
2018-05-04T00:45:13.528Z,41.45
2018-05-04T00:46:13.540Z,42.02
2018-05-04T00:47:13.525Z,41.64
2018-05-04T00:48:13.549Z,41.74
2018-05-04T00:49:13.556Z,42.11
2018-05-04T00:50:13.610Z,42.02
2018-05-04T00:51:13.566Z,42.02
2018-05-04T00:52:13.584Z,42.02
2018-05-04T00:53:13.630Z,42.21
2018-05-04T00:54:13.591Z,42.11
2018-05-04T00:55:13.648Z,42.31
2018-05-04T00:56:13.623Z,42.69
2018-05-04T00:57:13.661Z,43.17
2018-05-04T00:58:13.637Z,42.96
2018-05-04T00:59:13.649Z,42.77
2018-05-04T01:00:13.708Z,42.77
2018-05-04T01:01:13.661Z,42.86
2018-05-04T01:02:13.677Z,42.96
2018-05-04T01:03:13.685Z,42.69
2018-05-04T01:04:13.708Z,42.88
2018-05-04T01:05:13.706Z,42.96
2018-05-04T01:06:13.752Z,43.05
2018-05-04T01:07:13.724Z,42.77
2018-05-04T01:08:13.749Z,43.05
2018-05-04T01:09:13.743Z,43.15
2018-05-04T01:10:13.749Z,43.15
2018-05-04T01:11:13.771Z,43.53
2018-05-04T01:12:13.767Z,43.43
2018-05-04T01:13:13.775Z,43.33
2018-05-04T01:14:13.784Z,43.33
2018-05-04T01:15:13.843Z,43.33
2018-05-04T01:16:13.792Z,43.65
2018-05-04T01:17:13.811Z,43.55
2018-05-04T01:18:13.833Z,43.65
2018-05-04T01:19:13.854Z,43.55
2018-05-04T01:20:13.990Z,43.33
2018-05-04T01:21:13.854Z,43.55
2018-05-04T01:22:13.930Z,43.17
2018-05-04T01:23:13.867Z,43.65
2018-05-04T01:24:13.882Z,43.26
2018-05-04T01:25:13.893Z,43.53
2018-05-04T01:26:13.895Z,43.53
2018-05-04T01:27:13.899Z,43.91
2018-05-04T01:28:13.952Z,44.01
2018-05-04T01:29:13.923Z,44.29
2018-05-04T01:30:13.922Z,44.20
2018-05-04T01:31:13.941Z,44.29
2018-05-04T01:32:13.941Z,44.38
2018-05-04T01:33:13.961Z,44.58
2018-05-04T01:34:13.985Z,44.77
2018-05-04T01:35:13.979Z,44.58
2018-05-04T01:36:13.987Z,44.67
2018-05-04T01:37:14.018Z,44.48
2018-05-04T01:38:14.014Z,44.48
2018-05-04T01:39:14.053Z,44.48
2018-05-04T01:40:14.023Z,44.58
2018-05-04T01:41:14.053Z,44.67
2018-05-04T01:42:14.043Z,44.87
2018-05-04T01:43:14.048Z,45.06
2018-05-04T01:44:14.112Z,44.96
2018-05-04T01:45:14.070Z,44.96
2018-05-04T01:46:14.084Z,44.87
2018-05-04T01:47:14.072Z,45.06
2018-05-04T01:48:14.105Z,45.06
2018-05-04T01:49:14.114Z,45.06
2018-05-04T01:50:14.152Z,45.06
2018-05-04T01:51:14.128Z,45.15
2018-05-04T01:52:14.134Z,45.06
2018-05-04T01:53:14.138Z,45.25
2018-05-04T01:54:14.153Z,45.15
2018-05-04T01:55:14.194Z,45.15
2018-05-04T01:56:14.158Z,45.06
2018-05-04T01:57:14.164Z,44.96
2018-05-04T01:58:14.174Z,44.96
2018-05-04T01:59:14.182Z,44.96
2018-05-04T02:00:14.229Z,44.96
2018-05-04T02:01:14.198Z,45.06
2018-05-04T02:02:14.229Z,45.06
2018-05-04T02:03:14.253Z,45.34
2018-05-04T02:04:14.248Z,45.34
2018-05-04T02:05:14.269Z,45.15
2018-05-04T02:06:14.275Z,45.25
2018-05-04T02:07:14.272Z,45.06
2018-05-04T02:08:14.297Z,45.06
2018-05-04T02:09:14.326Z,45.06
2018-05-04T02:10:14.287Z,45.06
2018-05-04T02:11:14.297Z,45.25
2018-05-04T02:12:14.306Z,44.96
2018-05-04T02:13:14.324Z,45.34
2018-05-04T02:14:14.319Z,45.25
2018-05-04T02:15:14.384Z,45.15
2018-05-04T02:16:14.354Z,44.77
2018-05-04T02:17:14.355Z,45.15
2018-05-04T02:18:14.364Z,45.15
2018-05-04T02:19:14.365Z,45.43
2018-05-04T02:20:14.428Z,45.34
2018-05-04T02:21:14.408Z,45.15
2018-05-04T02:22:14.390Z,45.43
2018-05-04T02:23:14.399Z,45.43
2018-05-04T02:24:14.439Z,45.43
2018-05-04T02:25:14.432Z,45.43
2018-05-04T02:26:14.484Z,45.25
2018-05-04T02:27:14.446Z,45.34
2018-05-04T02:28:14.458Z,45.53
2018-05-04T02:29:14.452Z,45.63
2018-05-04T02:30:14.472Z,45.25
2018-05-04T02:31:14.495Z,45.43
2018-05-04T02:32:14.505Z,45.92
2018-05-04T02:33:14.499Z,45.53
2018-05-04T02:34:14.515Z,45.53
2018-05-04T02:35:14.508Z,45.43
2018-05-04T02:36:14.514Z,45.63
2018-05-04T02:37:14.526Z,45.53
2018-05-04T02:38:14.594Z,45.72
2018-05-04T02:39:14.600Z,45.43
2018-05-04T02:40:14.566Z,45.43
2018-05-04T02:41:14.563Z,45.63
2018-05-04T02:42:14.590Z,45.92
2018-05-04T02:43:14.588Z,45.82
2018-05-04T02:44:14.586Z,45.63
2018-05-04T02:45:14.638Z,45.63
2018-05-04T02:46:14.651Z,45.72
2018-05-04T02:47:14.621Z,45.72
2018-05-04T02:48:14.619Z,45.92
2018-05-04T02:49:14.656Z,45.92
2018-05-04T02:50:14.634Z,45.72
2018-05-04T02:51:14.692Z,45.82
2018-05-04T02:52:14.680Z,45.82
2018-05-04T02:53:14.679Z,46.11
2018-05-04T02:54:14.681Z,45.92
2018-05-04T02:55:14.704Z,46.11
2018-05-04T02:56:14.743Z,46.11
2018-05-04T02:57:14.762Z,45.99
2018-05-04T02:58:14.713Z,45.92
2018-05-04T02:59:14.737Z,45.92
2018-05-04T03:00:14.779Z,46.01
2018-05-04T03:01:14.746Z,45.82
2018-05-04T03:02:14.756Z,46.20
2018-05-04T03:03:14.805Z,46.30
2018-05-04T03:04:14.777Z,46.11
2018-05-04T03:05:14.780Z,46.30
2018-05-04T03:06:14.791Z,46.30
2018-05-04T03:07:14.800Z,46.48
2018-05-04T03:08:14.828Z,46.37
2018-05-04T03:09:14.846Z,46.75
2018-05-04T03:10:14.814Z,47.03
2018-05-04T03:11:14.861Z,46.47
2018-05-04T03:12:14.845Z,46.84
2018-05-04T03:13:14.858Z,47.42
2018-05-04T03:14:14.888Z,47.32
2018-05-04T03:15:14.879Z,47.23
2018-05-04T03:16:14.869Z,47.23
2018-05-04T03:17:14.892Z,47.34
2018-05-04T03:18:14.914Z,47.44
2018-05-04T03:19:14.930Z,47.32
2018-05-04T03:20:14.906Z,47.03
2018-05-04T03:21:14.972Z,46.58
2018-05-04T03:22:14.919Z,47.42
2018-05-04T03:23:14.932Z,47.32
2018-05-04T03:24:14.954Z,47.32
2018-05-04T03:25:14.962Z,47.13
2018-05-04T03:26:14.970Z,47.03
2018-05-04T03:27:14.992Z,47.03
2018-05-04T03:28:14.987Z,47.13
2018-05-04T03:29:15.017Z,47.03
2018-05-04T03:30:15.014Z,47.03
2018-05-04T03:31:15.005Z,47.13
2018-05-04T03:32:15.028Z,47.23
2018-05-04T03:33:15.033Z,47.32
2018-05-04T03:34:15.063Z,47.42
2018-05-04T03:35:15.047Z,47.13
2018-05-04T03:36:15.080Z,47.23
2018-05-04T03:37:15.067Z,47.52
2018-05-04T03:38:15.061Z,47.42
2018-05-04T03:39:15.139Z,47.52
2018-05-04T03:40:15.159Z,47.61
2018-05-04T03:41:15.095Z,47.89
2018-05-04T03:42:15.110Z,47.80
2018-05-04T03:43:15.128Z,47.99
2018-05-04T03:44:15.134Z,47.80
2018-05-04T03:45:15.136Z,47.61
2018-05-04T03:46:15.162Z,48.08
2018-05-04T03:47:21.786Z,47.89
2018-05-04T03:48:15.172Z,48.08
2018-05-04T03:49:15.167Z,48.08
2018-05-04T03:50:15.172Z,48.28
2018-05-04T03:51:15.241Z,48.35
2018-05-04T03:52:15.194Z,48.44
2018-05-04T03:53:15.193Z,48.44
2018-05-04T03:54:15.211Z,48.63
2018-05-04T03:55:15.209Z,48.63
2018-05-04T03:56:15.264Z,48.92
2018-05-04T03:57:15.269Z,49.21
2018-05-04T03:58:15.254Z,48.83
2018-05-04T03:59:15.252Z,48.73
2018-05-04T04:00:15.260Z,48.83
2018-05-04T04:01:15.298Z,49.04
2018-05-04T04:02:15.325Z,48.75
2018-05-04T04:03:15.323Z,49.13
2018-05-04T04:04:15.295Z,48.63
2018-05-04T04:05:15.339Z,48.66
2018-05-04T04:06:15.311Z,48.57
2018-05-04T04:07:15.312Z,48.37
2018-05-04T04:08:15.388Z,48.57
2018-05-04T04:09:15.366Z,48.47
2018-05-04T04:10:15.349Z,48.37
2018-05-04T04:11:15.365Z,48.28
2018-05-04T04:12:15.362Z,47.89
2018-05-04T04:13:15.408Z,48.37
2018-05-04T04:14:15.384Z,48.18
2018-05-04T04:15:15.393Z,48.08
2018-05-04T04:16:15.418Z,47.80
2018-05-04T04:17:15.401Z,48.02
2018-05-04T04:18:15.823Z,47.44
2018-05-04T04:19:15.446Z,47.44
2018-05-04T04:20:15.424Z,47.16
2018-05-04T04:21:15.435Z,47.25
2018-05-04T04:22:15.450Z,47.44
2018-05-04T04:23:15.473Z,47.16
2018-05-04T04:24:15.512Z,47.25
2018-05-04T04:25:15.517Z,47.25
2018-05-04T04:26:15.493Z,46.97
2018-05-04T04:27:15.493Z,46.77
2018-05-04T04:28:15.512Z,46.87
2018-05-04T04:29:15.502Z,46.87
2018-05-04T04:30:15.543Z,46.48
2018-05-04T04:31:15.571Z,46.97
2018-05-04T04:32:15.542Z,47.44
2018-05-04T04:33:15.550Z,47.16
2018-05-04T04:34:15.582Z,47.25
2018-05-04T04:35:15.561Z,47.16
2018-05-04T04:36:15.613Z,47.25
2018-05-04T04:37:15.576Z,47.25
2018-05-04T04:38:15.601Z,47.06
2018-05-04T04:39:15.606Z,47.25
2018-05-04T04:40:15.605Z,47.16
2018-05-04T04:41:15.678Z,47.16
2018-05-04T04:42:15.629Z,47.34
2018-05-04T04:43:15.681Z,46.87
2018-05-04T04:44:15.649Z,46.51
2018-05-04T04:45:15.689Z,46.22
2018-05-04T04:46:15.671Z,45.94
2018-05-04T04:47:15.702Z,45.75
2018-05-04T04:48:15.692Z,45.39
2018-05-04T04:49:15.699Z,45.10
2018-05-04T04:50:15.706Z,44.72
2018-05-04T04:51:15.718Z,43.98
2018-05-04T04:52:15.791Z,43.50
2018-05-04T04:53:15.732Z,42.66
2018-05-04T04:54:15.734Z,41.99
2018-05-04T04:55:15.760Z,41.91
2018-05-04T04:56:15.807Z,40.86
2018-05-04T04:57:15.810Z,41.05
2018-05-04T04:58:15.779Z,40.88
2018-05-04T04:59:15.809Z,40.59
2018-05-04T05:00:15.812Z,40.50
2018-05-04T05:01:15.818Z,40.41
2018-05-04T05:02:15.859Z,39.85
2018-05-04T05:03:15.832Z,39.37
2018-05-04T05:04:15.844Z,39.37
2018-05-04T05:05:15.852Z,39.20
2018-05-04T05:06:15.861Z,38.53
2018-05-04T05:07:15.910Z,38.34
2018-05-04T05:08:15.876Z,38.34
2018-05-04T05:09:15.893Z,38.14
2018-05-04T05:10:15.897Z,37.85
2018-05-04T05:11:15.922Z,37.57
2018-05-04T05:12:15.963Z,37.68
2018-05-04T05:13:15.940Z,36.82
2018-05-04T05:14:15.959Z,36.46
2018-05-04T05:15:15.960Z,35.97
2018-05-04T05:16:15.971Z,35.97
2018-05-04T05:17:16.034Z,36.65
2018-05-04T05:18:16.066Z,36.74
2018-05-04T05:19:16.006Z,36.36
2018-05-04T05:20:16.005Z,35.42
2018-05-04T05:21:16.033Z,35.32
2018-05-04T05:22:16.085Z,34.78
2018-05-04T05:23:16.075Z,34.11
2018-05-04T05:24:16.292Z,33.16
2018-05-04T05:25:16.109Z,32.60
2018-05-04T05:26:16.135Z,31.65
2018-05-04T05:27:16.099Z,31.38
2018-05-04T05:28:16.108Z,30.71
2018-05-04T05:29:16.126Z,30.53
2018-05-04T05:30:16.121Z,29.58
2018-05-04T05:31:16.181Z,29.02
2018-05-04T05:32:16.166Z,28.55
2018-05-04T05:33:16.195Z,27.70
2018-05-04T05:34:16.179Z,26.73
2018-05-04T05:35:16.190Z,26.73
2018-05-04T05:36:16.262Z,26.65
2018-05-04T05:37:16.212Z,26.45
2018-05-04T05:38:16.235Z,25.97
2018-05-04T05:39:16.385Z,25.78
2018-05-04T05:40:16.266Z,26.07
2018-05-04T05:41:16.318Z,25.89
2018-05-04T05:42:16.320Z,25.70
2018-05-04T05:43:16.304Z,25.12
2018-05-04T05:44:16.317Z,25.12
2018-05-04T05:45:16.332Z,26.17
2018-05-04T05:46:16.371Z,25.66
2018-05-04T05:47:16.385Z,27.19
2018-05-04T05:48:16.364Z,27.93
2018-05-04T05:49:16.391Z,29.08
2018-05-04T05:50:16.402Z,29.36
2018-05-04T05:51:16.425Z,30.50
2018-05-04T05:52:16.475Z,30.87
2018-05-04T05:53:16.425Z,30.77
2018-05-04T05:54:16.467Z,31.72
2018-05-04T05:55:16.467Z,32.18
2018-05-04T05:56:16.468Z,32.84
2018-05-04T05:57:16.511Z,33.32
2018-05-04T05:58:16.516Z,33.88
2018-05-04T05:59:16.519Z,34.94
2018-05-04T06:00:16.525Z,34.65
2018-05-04T06:01:16.537Z,34.55
2018-05-04T06:02:16.610Z,35.11
2018-05-04T06:03:16.549Z,35.30
2018-05-04T06:04:16.564Z,36.24
2018-05-04T06:05:16.573Z,36.07
2018-05-04T06:06:16.609Z,35.97
2018-05-04T06:07:16.653Z,35.69
2018-05-04T06:08:16.612Z,36.07
2018-05-04T06:09:16.651Z,36.53
2018-05-04T06:10:16.656Z,37.78
2018-05-04T06:11:16.696Z,37.59
2018-05-04T06:12:17.203Z,37.97
2018-05-04T06:13:16.681Z,38.43
2018-05-04T06:14:16.687Z,38.72
2018-05-04T06:15:16.694Z,39.20
2018-05-04T06:16:16.712Z,39.18
2018-05-04T06:17:16.711Z,39.37
2018-05-04T06:18:16.758Z,39.47
2018-05-04T06:19:16.750Z,39.94
2018-05-04T06:20:16.760Z,39.75
2018-05-04T06:21:16.761Z,40.14
2018-05-04T06:22:16.770Z,40.44
2018-05-04T06:23:16.831Z,39.97
2018-05-04T06:24:16.808Z,39.58
2018-05-04T06:25:16.810Z,39.68
2018-05-04T06:26:16.824Z,39.94
2018-05-04T06:27:16.829Z,39.75
2018-05-04T06:28:16.866Z,40.42
2018-05-04T06:29:16.883Z,40.61
2018-05-04T06:30:16.870Z,40.42
2018-05-04T06:31:16.892Z,40.33
2018-05-04T06:32:16.883Z,40.42
2018-05-04T06:33:16.886Z,40.61
2018-05-04T06:34:16.945Z,40.31
2018-05-04T06:35:16.956Z,40.88
2018-05-04T06:36:16.931Z,40.78
2018-05-04T06:37:16.937Z,41.27
2018-05-04T06:38:16.955Z,41.17
2018-05-04T06:39:16.999Z,41.27
2018-05-04T06:40:17.861Z,41.55
2018-05-04T06:41:16.985Z,42.03
2018-05-04T06:42:17.022Z,41.27
2018-05-04T06:43:17.001Z,40.78
2018-05-04T06:44:17.057Z,41.46
2018-05-04T06:45:17.052Z,41.46
2018-05-04T06:46:17.067Z,41.65
2018-05-04T06:47:17.043Z,41.94
2018-05-04T06:48:17.054Z,42.03
2018-05-04T06:49:17.107Z,42.13
2018-05-04T06:50:17.076Z,41.46
2018-05-04T06:51:17.089Z,41.84
2018-05-04T06:52:17.093Z,41.65
2018-05-04T06:53:17.165Z,42.20
2018-05-04T06:54:17.147Z,42.20
2018-05-04T06:55:17.130Z,41.63
2018-05-04T06:56:17.155Z,41.15
2018-05-04T06:57:17.160Z,40.77
2018-05-04T06:58:17.170Z,40.86
2018-05-04T06:59:17.243Z,40.86
2018-05-04T07:00:17.202Z,41.27
2018-05-04T07:01:17.236Z,41.15
2018-05-04T07:02:17.203Z,40.77
2018-05-04T07:03:17.205Z,41.34
2018-05-04T07:04:17.237Z,40.67
2018-05-04T07:05:17.239Z,41.24
2018-05-04T07:06:17.312Z,40.77
2018-05-04T07:07:17.268Z,39.72
2018-05-04T07:08:17.270Z,39.14
2018-05-04T07:09:17.288Z,38.85
2018-05-04T07:10:17.297Z,39.14
2018-05-04T07:11:17.307Z,39.69
2018-05-04T07:12:17.355Z,39.43
2018-05-04T07:13:17.327Z,39.52
2018-05-04T07:14:17.334Z,39.43
2018-05-04T07:15:17.344Z,39.72
2018-05-04T07:16:17.356Z,39.40
2018-05-04T07:17:17.398Z,39.03
2018-05-04T07:18:17.383Z,39.69
2018-05-04T07:19:17.374Z,39.52
2018-05-04T07:20:17.391Z,38.93
2018-05-04T07:21:17.391Z,39.50
2018-05-04T07:22:17.452Z,39.89
2018-05-04T07:23:17.422Z,39.89
2018-05-04T07:24:17.430Z,39.79
2018-05-04T07:25:17.438Z,39.79
2018-05-04T07:26:17.485Z,39.89
2018-05-04T07:27:17.492Z,39.31
2018-05-04T07:28:17.500Z,37.97
2018-05-04T07:29:17.476Z,38.83
2018-05-04T07:30:17.497Z,38.83
2018-05-04T07:31:17.509Z,39.03
2018-05-04T07:32:17.546Z,39.50
2018-05-04T07:33:17.553Z,39.31
2018-05-04T07:34:17.536Z,39.40
2018-05-04T07:35:17.538Z,38.26
2018-05-04T07:36:17.550Z,38.54
2018-05-04T07:37:17.612Z,38.17
2018-05-04T07:38:17.589Z,38.17
2018-05-04T07:39:17.585Z,37.78
2018-05-04T07:40:17.595Z,37.97
2018-05-04T07:41:17.621Z,37.97
2018-05-04T07:42:17.810Z,37.59
2018-05-04T07:43:17.631Z,38.07
2018-05-04T07:44:17.637Z,38.17
2018-05-04T07:45:17.647Z,38.54
2018-05-04T07:46:17.654Z,38.28
2018-05-04T07:47:17.669Z,38.28
2018-05-04T07:48:17.859Z,38.37
2018-05-04T07:49:17.696Z,38.47
2018-05-04T07:50:17.700Z,37.90
2018-05-04T07:51:17.720Z,36.55
2018-05-04T07:52:17.725Z,35.31
2018-05-04T07:53:17.746Z,34.06
2018-05-04T07:54:17.789Z,33.67
2018-05-04T07:55:17.813Z,34.83
2018-05-04T07:56:17.756Z,34.64
2018-05-04T07:57:17.777Z,34.64
2018-05-04T07:58:17.775Z,35.31
2018-05-04T07:59:17.868Z,35.02
2018-05-04T08:00:17.794Z,35.31
2018-05-04T08:01:17.813Z,35.98
2018-05-04T08:02:17.850Z,35.41
2018-05-04T08:03:17.827Z,34.26
2018-05-04T08:04:17.898Z,33.97
2018-05-04T08:05:17.850Z,32.44
2018-05-04T08:06:17.895Z,31.67
2018-05-04T08:07:17.894Z,31.77
2018-05-04T08:08:17.893Z,31.67
2018-05-04T08:09:17.948Z,31.67
2018-05-04T08:10:17.918Z,31.77
2018-05-04T08:11:18.117Z,32.06
2018-05-04T08:12:17.918Z,32.73
2018-05-04T08:13:17.944Z,33.40
2018-05-04T08:14:17.950Z,31.01
2018-05-04T08:15:17.955Z,30.43
2018-05-04T08:16:17.985Z,30.33
2018-05-04T08:17:18.036Z,31.58
2018-05-04T08:18:17.982Z,31.10
2018-05-04T08:19:18.020Z,30.24
2018-05-04T08:20:18.013Z,29.95
2018-05-04T08:21:18.026Z,29.47
2018-05-04T08:22:18.058Z,29.19
2018-05-04T08:23:18.042Z,29.09
2018-05-04T08:24:18.064Z,30.24
2018-05-04T08:25:18.069Z,30.33
2018-05-04T08:26:18.075Z,30.62
2018-05-04T08:27:18.163Z,30.81
2018-05-04T08:28:18.153Z,31.48
2018-05-04T08:29:18.105Z,30.43
2018-05-04T08:30:18.121Z,29.09
2018-05-04T08:31:18.129Z,28.50
2018-05-04T08:32:18.136Z,28.42
2018-05-04T08:33:18.178Z,29.38
2018-05-04T08:34:18.147Z,29.09
2018-05-04T08:35:18.295Z,28.98
2018-05-04T08:36:18.239Z,27.75
2018-05-04T08:37:18.205Z,28.42
2018-05-04T08:38:18.201Z,29.28
2018-05-04T08:39:18.234Z,30.43
2018-05-04T08:40:18.226Z,31.10
2018-05-04T08:41:18.219Z,31.10
2018-05-04T08:42:18.301Z,31.18
2018-05-04T08:43:18.259Z,31.20
2018-05-04T08:44:18.277Z,30.81
2018-05-04T08:45:18.268Z,31.01
2018-05-04T08:46:18.292Z,31.38
2018-05-04T08:47:18.281Z,31.20
2018-05-04T08:48:18.426Z,30.81
2018-05-04T08:49:18.305Z,30.52
2018-05-04T08:50:18.313Z,30.15
2018-05-04T08:51:18.336Z,30.33
2018-05-04T08:52:18.342Z,29.38
2018-05-04T08:53:18.362Z,29.19
2018-05-04T08:54:18.594Z,29.57
2018-05-04T08:55:18.373Z,28.99
2018-05-04T08:56:18.375Z,28.61
2018-05-04T08:57:18.439Z,28.23
2018-05-04T08:58:18.411Z,28.33
2018-05-04T08:59:18.418Z,28.52
2018-05-04T09:00:18.463Z,28.70
2018-05-04T09:01:18.438Z,28.70
2018-05-04T09:02:18.452Z,28.70
2018-05-04T09:03:18.450Z,27.27
2018-05-04T09:04:18.465Z,26.79
2018-05-04T09:05:18.610Z,26.22
2018-05-04T09:06:18.480Z,25.84
2018-05-04T09:07:18.491Z,25.16
2018-05-04T09:08:18.536Z,25.84
2018-05-04T09:09:18.521Z,26.31
2018-05-04T09:10:18.568Z,26.60
2018-05-04T09:11:18.536Z,25.93
2018-05-04T09:12:18.543Z,26.89
2018-05-04T09:13:18.552Z,26.98
2018-05-04T09:14:18.579Z,27.18
2018-05-04T09:15:18.609Z,27.27
2018-05-04T09:16:18.629Z,24.40
2018-05-04T09:17:18.590Z,22.87
2018-05-04T09:18:18.633Z,22.78
2018-05-04T09:19:18.639Z,23.54
2018-05-04T09:20:18.641Z,24.21
2018-05-04T09:21:18.694Z,24.41
2018-05-04T09:22:18.672Z,25.56
2018-05-04T09:23:18.661Z,26.42
2018-05-04T09:24:18.667Z,27.09
2018-05-04T09:25:18.697Z,26.62
2018-05-04T09:26:18.710Z,26.62
2018-05-04T09:27:18.745Z,27.00
2018-05-04T09:28:18.720Z,27.38
2018-05-04T09:29:18.723Z,27.00
2018-05-04T09:30:18.760Z,26.33
2018-05-04T09:31:18.761Z,26.81
2018-05-04T09:32:18.798Z,26.90
2018-05-04T09:33:18.824Z,27.95
2018-05-04T09:34:18.784Z,28.72
2018-05-04T09:35:18.780Z,28.44
2018-05-04T09:36:18.811Z,27.86
2018-05-04T09:37:18.840Z,25.27
2018-05-04T09:38:18.815Z,25.75
2018-05-04T09:39:18.855Z,26.04
2018-05-04T09:40:18.875Z,26.60
2018-05-04T09:41:18.846Z,26.22
2018-05-04T09:42:18.863Z,26.23
2018-05-04T09:43:18.873Z,26.23
2018-05-04T09:44:18.899Z,26.42
2018-05-04T09:45:18.926Z,26.90
2018-05-04T09:46:18.917Z,27.28
2018-05-04T09:47:18.914Z,27.67
2018-05-04T09:48:18.928Z,27.48
2018-05-04T09:49:18.928Z,27.76
2018-05-04T09:50:18.992Z,27.19
2018-05-04T09:51:18.962Z,26.62
2018-05-04T09:52:18.971Z,26.52
2018-05-04T09:53:18.977Z,25.66
2018-05-04T09:54:18.982Z,25.75
2018-05-04T09:55:19.047Z,26.23
2018-05-04T09:56:19.004Z,26.62
2018-05-04T09:57:19.019Z,26.52
2018-05-04T09:58:19.094Z,26.34
2018-05-04T09:59:19.061Z,26.52
2018-05-04T10:00:19.090Z,26.81
2018-05-04T10:01:19.069Z,26.90
2018-05-04T10:02:19.076Z,26.92
2018-05-04T10:03:19.093Z,27.19
2018-05-04T10:04:19.089Z,27.28
2018-05-04T10:05:19.137Z,27.11
2018-05-04T10:06:19.114Z,26.62
2018-05-04T10:07:19.131Z,24.89
2018-05-04T10:08:19.134Z,25.66
2018-05-04T10:09:19.157Z,25.66
2018-05-04T10:10:19.226Z,26.52
2018-05-04T10:11:19.191Z,26.53
2018-05-04T10:12:19.195Z,26.92
2018-05-04T10:13:19.200Z,26.92
2018-05-04T10:14:19.204Z,27.30
2018-05-04T10:15:19.261Z,28.05
2018-05-04T10:16:19.221Z,28.45
2018-05-04T10:17:19.242Z,28.44
2018-05-04T10:18:19.241Z,28.45
2018-05-04T10:19:19.262Z,27.87
2018-05-04T10:20:19.301Z,27.68
2018-05-04T10:21:19.304Z,28.55
2018-05-04T10:22:19.292Z,28.64
2018-05-04T10:23:19.310Z,26.90
2018-05-04T10:24:19.326Z,26.63
2018-05-04T10:25:19.362Z,27.20
2018-05-04T10:26:19.348Z,27.20
2018-05-04T10:27:19.352Z,26.82
2018-05-04T10:28:19.376Z,26.82
2018-05-04T10:29:19.362Z,27.30
2018-05-04T10:30:19.460Z,27.68
2018-05-04T10:31:19.419Z,27.59
2018-05-04T10:32:19.416Z,27.11
2018-05-04T10:33:19.402Z,27.01
2018-05-04T10:34:19.411Z,27.39
2018-05-04T10:35:19.478Z,28.45
2018-05-04T10:36:19.467Z,28.45
2018-05-04T10:37:19.454Z,27.67
2018-05-04T10:38:19.584Z,27.38
2018-05-04T10:39:19.506Z,26.81
2018-05-04T10:40:19.494Z,25.56
2018-05-04T10:41:19.507Z,25.66
2018-05-04T10:42:19.505Z,25.75
2018-05-04T10:43:19.564Z,26.15
2018-05-04T10:44:19.523Z,26.63
2018-05-04T10:45:19.543Z,26.92
2018-05-04T10:46:19.586Z,27.68
2018-05-04T10:47:19.564Z,27.68
2018-05-04T10:48:19.613Z,27.39
2018-05-04T10:49:19.579Z,27.01
2018-05-04T10:50:19.623Z,26.92
2018-05-04T10:51:19.604Z,26.92
2018-05-04T10:52:19.623Z,27.59
2018-05-04T10:53:19.637Z,28.26
2018-05-04T10:54:19.633Z,28.16
2018-05-04T10:55:19.667Z,28.55
2018-05-04T10:56:19.707Z,28.55
2018-05-04T10:57:19.672Z,28.55
2018-05-04T10:58:19.678Z,28.64
2018-05-04T10:59:19.698Z,28.45
2018-05-04T11:00:19.695Z,28.83
2018-05-04T11:01:19.793Z,28.64
2018-05-04T11:02:19.731Z,28.83
2018-05-04T11:03:19.787Z,28.92
2018-05-04T11:04:19.760Z,29.02
2018-05-04T11:05:19.851Z,28.85
2018-05-04T11:06:19.759Z,28.35
2018-05-04T11:07:19.787Z,28.56
2018-05-04T11:08:19.840Z,28.66
2018-05-04T11:09:19.805Z,28.46
2018-05-04T11:10:19.805Z,28.26
2018-05-04T11:11:19.838Z,28.37
2018-05-04T11:12:19.835Z,27.31
2018-05-04T11:13:20.341Z,27.41
2018-05-04T11:14:19.854Z,27.31
2018-05-04T11:15:19.873Z,27.22
2018-05-04T11:16:19.882Z,27.60
2018-05-04T11:17:19.895Z,27.79
2018-05-04T11:18:19.900Z,27.89
2018-05-04T11:19:19.965Z,27.79
2018-05-04T11:20:19.964Z,27.60
2018-05-04T11:21:19.937Z,28.56
2018-05-04T11:22:19.985Z,28.46
2018-05-04T11:23:19.954Z,28.56
2018-05-04T11:24:19.974Z,27.70
2018-05-04T11:25:20.041Z,27.60
2018-05-04T11:26:19.994Z,27.70
2018-05-04T11:27:20.020Z,27.60
2018-05-04T11:28:20.019Z,27.79
2018-05-04T11:29:20.031Z,28.27
2018-05-04T11:30:20.071Z,28.46
2018-05-04T11:31:20.037Z,28.56
2018-05-04T11:32:20.050Z,28.85
2018-05-04T11:33:20.093Z,28.57
2018-05-04T11:34:20.080Z,28.56
2018-05-04T11:35:20.114Z,28.37
2018-05-04T11:36:20.143Z,27.71
2018-05-04T11:37:20.124Z,28.38
2018-05-04T11:38:20.123Z,28.86
2018-05-04T11:39:20.141Z,28.56
2018-05-04T11:40:20.173Z,27.81
2018-05-04T11:41:20.160Z,27.81
2018-05-04T11:42:20.190Z,27.71
2018-05-04T11:43:20.168Z,27.42
2018-05-04T11:44:20.187Z,27.42
2018-05-04T11:45:20.207Z,27.12
2018-05-04T11:46:20.213Z,27.79
2018-05-04T11:47:20.255Z,27.81
2018-05-04T11:48:20.233Z,27.71
2018-05-04T11:49:20.242Z,27.52
2018-05-04T11:50:20.275Z,26.94
2018-05-04T11:51:20.263Z,27.14
2018-05-04T11:52:20.344Z,27.90
2018-05-04T11:53:20.312Z,27.71
2018-05-04T11:54:20.342Z,27.14
2018-05-04T11:55:20.347Z,26.85
2018-05-04T11:56:20.375Z,26.56
2018-05-04T11:57:20.367Z,27.23
2018-05-04T11:58:20.414Z,27.23
2018-05-04T11:59:20.375Z,27.42
2018-05-04T12:00:20.372Z,26.94
2018-05-04T12:01:20.420Z,26.85
2018-05-04T12:02:20.438Z,26.85
2018-05-04T12:03:20.433Z,26.75
2018-05-04T12:04:20.474Z,26.85
2018-05-04T12:05:20.417Z,27.04
2018-05-04T12:06:20.440Z,27.23
2018-05-04T12:07:20.465Z,27.90
2018-05-04T12:08:20.479Z,26.94
2018-05-04T12:09:20.501Z,27.23
2018-05-04T12:10:20.516Z,27.04
2018-05-04T12:11:20.487Z,26.27
2018-05-04T12:12:20.510Z,26.46
2018-05-04T12:13:20.521Z,26.65
2018-05-04T12:14:20.534Z,26.37
2018-05-04T12:15:20.567Z,26.75
2018-05-04T12:16:20.564Z,26.37
2018-05-04T12:17:20.573Z,26.46
2018-05-04T12:18:20.607Z,26.76
2018-05-04T12:19:20.583Z,26.46
2018-05-04T12:20:20.636Z,26.37
2018-05-04T12:21:20.622Z,26.18
2018-05-04T12:22:20.647Z,25.60
2018-05-04T12:23:20.643Z,25.60
2018-05-04T12:24:20.647Z,25.60
2018-05-04T12:25:20.689Z,25.61
2018-05-04T12:26:20.666Z,25.99
2018-05-04T12:27:20.709Z,26.09
2018-05-04T12:28:20.689Z,25.61
2018-05-04T12:29:20.717Z,25.90
2018-05-04T12:30:20.713Z,25.81
2018-05-04T12:31:20.741Z,25.81
2018-05-04T12:32:20.751Z,25.52
2018-05-04T12:33:20.756Z,25.32
2018-05-04T12:34:20.801Z,25.52
2018-05-04T12:35:20.817Z,25.52
2018-05-04T12:36:20.786Z,25.42
2018-05-04T12:37:20.794Z,25.13
2018-05-04T12:38:20.837Z,24.75
2018-05-04T12:39:20.806Z,24.94
2018-05-04T12:40:20.884Z,25.23
2018-05-04T12:41:20.826Z,25.23
2018-05-04T12:42:20.849Z,25.13
2018-05-04T12:43:20.886Z,23.88
2018-05-04T12:44:20.884Z,23.88
2018-05-04T12:45:20.897Z,23.98
2018-05-04T12:46:20.941Z,24.56
2018-05-04T12:47:20.904Z,23.60
2018-05-04T12:48:20.910Z,23.88
2018-05-04T12:49:20.933Z,24.27
2018-05-04T12:50:20.948Z,23.50
2018-05-04T12:51:21.023Z,23.80
2018-05-04T12:52:20.972Z,24.09